Time;durP1;ratioP1;P1;durP2;ratioP2;P2;SDS_P1;SDS_P2;PMS_P1;PMS_P2;Temp;Humidity;BMP_temperature;BMP_pressure;BME280_temperature;BME280_humidity;BME280_pressure;Samples;Min_cycle;Max_cycle;Signal;HPM_P1;HPM_P2
2022/01/10 00:01:50;;;;;;;;;;;2.90;99.90;;;;;;4937577;29;19923;-74
2022/01/10 00:04:15;;;;;;;;;;;1.20;99.90;;;;;;4951939;29;19945;-74
2022/01/10 00:06:45;;;;;;;;;;;1.10;99.90;;;;;;4954233;29;19922;-74
2022/01/10 00:09:10;;;;;;;;;;;1.10;99.90;;;;;;4959567;28;19926;-74
2022/01/10 00:11:36;;;;;;;;;;;1.00;99.90;;;;;;4956158;28;19922;-74
2022/01/10 00:14:04;;;;;;;;;;;0.90;99.90;;;;;;4973846;28;19922;-74
2022/01/10 00:16:30;;;;;;;;;;;1.00;99.90;;;;;;4939886;28;20017;-74
2022/01/10 00:18:56;;;;;;;;;;;1.00;99.90;;;;;;4971256;28;19929;-74
2022/01/10 00:21:21;;;;;;;;;;;1.10;99.90;;;;;;4955860;28;19926;-74
2022/01/10 00:23:47;;;;;;;;;;;1.00;99.90;;;;;;4972931;28;19922;-74
2022/01/10 00:26:12;;;;;;;;;;;1.00;99.90;;;;;;4971663;28;19977;-74
2022/01/10 00:28:38;;;;;;;;;;;-0.20;99.90;;;;;;4973524;28;20374;-74
2022/01/10 00:31:03;;;;;;;;;;;1.00;99.90;;;;;;4958828;28;19961;-75
2022/01/10 00:33:29;;;;;;;;;;;0.90;99.90;;;;;;4958778;28;19925;-74
2022/01/10 00:35:55;;;;;;;;;;;1.00;99.90;;;;;;4977230;28;19955;-74
2022/01/10 00:38:20;;;;;;;;;;;0.90;99.90;;;;;;4959427;28;19969;-74
2022/01/10 00:40:49;;;;;;;;;;;1.00;99.90;;;;;;4940618;28;20444;-74
2022/01/10 00:43:28;;;;;;;;;;;0.90;99.90;;;;;;4957453;29;19922;-74
2022/01/10 00:45:54;;;;;;;;;;;1.00;99.90;;;;;;4940417;29;19922;-74
2022/01/10 00:48:19;;;;;;;;;;;1.00;99.90;;;;;;4956616;29;20029;-74
2022/01/10 00:50:45;;;;;;;;;;;0.90;99.90;;;;;;4957458;29;20363;-74
2022/01/10 00:53:13;;;;;;;;;;;0.80;99.90;;;;;;4939336;29;19922;-74
2022/01/10 00:55:39;;;;;;;;;;;0.90;99.90;;;;;;4958614;28;19927;-74
2022/01/10 00:58:04;;;;;;;;;;;0.80;99.90;;;;;;4940282;29;19922;-74
2022/01/10 01:00:30;;;;;;;;;;;0.80;99.90;;;;;;4956463;29;19922;-74
2022/01/10 01:02:58;;;;;;;;;;;0.70;99.90;;;;;;4940184;29;20302;-74
2022/01/10 01:05:25;;;;;;;;;;;0.70;99.90;;;;;;4939493;29;19922;-75
2022/01/10 01:07:50;;;;;;;;;;;0.70;99.90;;;;;;4939251;29;20012;-75
2022/01/10 01:13:07;;;;;;;;;;;0.70;99.90;;;;;;4939895;29;20382;-75
2022/01/10 01:15:44;;;;;;;;;;;0.60;99.90;;;;;;4956787;29;19977;-75
2022/01/10 01:18:30;;;;;;;;;;;0.70;99.90;;;;;;4939783;29;19926;-75
2022/01/10 01:26:24;;;;;;;;;;;0.50;99.90;;;;;;4970532;28;19922;-75
2022/01/10 01:28:56;;;;;;;;;;;2.30;99.90;;;;;;4975604;28;20017;-75
2022/01/10 01:31:22;;;;;;;;;;;0.50;99.90;;;;;;4975647;28;19926;-74
2022/01/10 01:33:49;;;;;;;;;;;3.50;99.90;;;;;;4958613;28;19950;-74
2022/01/10 01:36:20;;;;;;;;;;;0.40;99.90;;;;;;4958183;28;19922;-74
2022/01/10 01:38:52;;;;;;;;;;;0.50;99.90;;;;;;4958892;28;19926;-74
2022/01/10 01:41:34;;;;;;;;;;;0.50;99.90;;;;;;4939020;29;19922;-75
2022/01/10 01:44:05;;;;;;;;;;;0.50;99.90;;;;;;4956093;29;20346;-75
2022/01/10 01:46:33;;;;;;;;;;;0.50;99.90;;;;;;4953683;29;19949;-74
2022/01/10 01:48:59;;;;;;;;;;;0.40;99.90;;;;;;4956111;28;19922;-75
2022/01/10 01:51:27;;;;;;;;;;;0.50;99.90;;;;;;4938975;29;19922;-75
2022/01/10 01:53:53;;;;;;;;;;;0.50;99.90;;;;;;4939136;29;19957;-75
2022/01/10 01:56:19;;;;;;;;;;;0.60;99.90;;;;;;4923875;29;19929;-75
2022/01/10 01:58:45;;;;;;;;;;;0.50;99.90;;;;;;4938531;29;19929;-75
2022/01/10 02:01:11;;;;;;;;;;;0.50;99.90;;;;;;4939045;29;19970;-75
2022/01/10 02:03:38;;;;;;;;;;;0.60;99.90;;;;;;4938245;29;20363;-75
2022/01/10 02:06:04;;;;;;;;;;;0.50;99.90;;;;;;4956332;29;19969;-74
2022/01/10 02:08:31;;;;;;;;;;;1.30;99.90;;;;;;4955989;29;19922;-75
2022/01/10 02:10:57;;;;;;;;;;;1.10;99.90;;;;;;4971633;28;19922;-74
2022/01/10 02:13:22;;;;;;;;;;;2.40;99.90;;;;;;4974739;28;20005;-75
2022/01/10 02:15:57;;;;;;;;;;;0.40;99.90;;;;;;4975429;28;20056;-75
2022/01/10 02:18:23;;;;;;;;;;;0.40;99.90;;;;;;4974191;28;19930;-75
2022/01/10 02:20:52;;;;;;;;;;;0.40;99.90;;;;;;4973430;28;19926;-74
2022/01/10 02:23:19;;;;;;;;;;;0.30;99.90;;;;;;4972535;28;19928;-75
2022/01/10 02:25:46;;;;;;;;;;;0.50;99.90;;;;;;4974600;28;19922;-75
2022/01/10 02:28:12;;;;;;;;;;;0.80;99.90;;;;;;4974480;28;20350;-74
2022/01/10 02:30:38;;;;;;;;;;;0.50;99.90;;;;;;4975144;28;19925;-75
2022/01/10 02:33:07;;;;;;;;;;;0.90;99.90;;;;;;4974047;28;20267;-75
2022/01/10 02:35:46;;;;;;;;;;;0.40;99.90;;;;;;4944448;29;20388;-75
2022/01/10 02:38:11;;;;;;;;;;;0.40;99.90;;;;;;4955317;29;19929;-75
2022/01/10 02:40:37;;;;;;;;;;;0.30;99.90;;;;;;4955279;29;19926;-75
2022/01/10 02:43:09;;;;;;;;;;;0.30;99.90;;;;;;4955799;29;20039;-75
2022/01/10 02:45:35;;;;;;;;;;;0.20;99.90;;;;;;4955064;29;20265;-74
2022/01/10 02:48:00;;;;;;;;;;;0.20;99.90;;;;;;4955095;29;19929;-74
2022/01/10 02:50:26;;;;;;;;;;;0.20;99.90;;;;;;4956164;28;19981;-75
2022/01/10 02:52:51;;;;;;;;;;;0.20;99.90;;;;;;4954209;28;19964;-74
2022/01/10 02:55:17;;;;;;;;;;;0.40;99.90;;;;;;4937798;29;19922;-74
2022/01/10 02:57:43;;;;;;;;;;;0.30;99.90;;;;;;4955485;29;19926;-75
2022/01/10 03:00:19;;;;;;;;;;;0.30;99.90;;;;;;4937189;29;19923;-74
2022/01/10 03:02:49;;;;;;;;;;;0.30;99.90;;;;;;4956496;28;19926;-74
2022/01/10 03:05:15;;;;;;;;;;;0.20;99.90;;;;;;4955044;29;19922;-74
2022/01/10 03:07:44;;;;;;;;;;;0.20;99.90;;;;;;4954767;29;19923;-74
2022/01/10 03:10:10;;;;;;;;;;;0.20;99.90;;;;;;4963766;28;20481;-74
2022/01/10 03:12:38;;;;;;;;;;;0.40;99.90;;;;;;4974561;28;19929;-74
2022/01/10 03:15:08;;;;;;;;;;;0.20;99.90;;;;;;4974071;28;19922;-74
2022/01/10 03:17:35;;;;;;;;;;;0.30;99.90;;;;;;4974444;28;19928;-74
2022/01/10 03:20:01;;;;;;;;;;;0.20;99.90;;;;;;4974327;28;19922;-74
2022/01/10 03:22:26;;;;;;;;;;;0.20;99.90;;;;;;4971782;28;19921;-74
2022/01/10 03:24:55;;;;;;;;;;;0.10;99.90;;;;;;4974283;28;19922;-74
2022/01/10 03:27:22;;;;;;;;;;;2.20;99.90;;;;;;4974076;28;19930;-75
2022/01/10 03:29:51;;;;;;;;;;;0.10;99.90;;;;;;4955822;28;20389;-75
2022/01/10 03:32:17;;;;;;;;;;;0.10;99.90;;;;;;4973949;28;19922;-73
2022/01/10 03:34:43;;;;;;;;;;;0.10;99.90;;;;;;4940690;29;19933;-73
2022/01/10 03:37:09;;;;;;;;;;;0.00;99.90;;;;;;4953986;29;19922;-74
2022/01/10 03:39:35;;;;;;;;;;;0.00;99.90;;;;;;4954575;29;19926;-74
2022/01/10 03:42:03;;;;;;;;;;;1.80;99.90;;;;;;4954357;29;20282;-74
2022/01/10 03:44:29;;;;;;;;;;;0.00;99.90;;;;;;4955411;28;20297;-74
2022/01/10 03:47:05;;;;;;;;;;;-0.10;99.90;;;;;;4937410;29;19922;-74
2022/01/10 03:49:30;;;;;;;;;;;0.00;99.90;;;;;;4954381;29;19941;-74
2022/01/10 03:51:56;;;;;;;;;;;0.00;99.90;;;;;;4954696;29;20370;-74
2022/01/10 03:54:23;;;;;;;;;;;-0.10;99.90;;;;;;4954582;29;19922;-74
2022/01/10 03:56:48;;;;;;;;;;;0.00;99.90;;;;;;4954383;29;19918;-74
2022/01/10 03:59:14;;;;;;;;;;;-1.30;99.90;;;;;;4947805;28;19922;-74
2022/01/10 04:01:43;;;;;;;;;;;0.00;99.90;;;;;;4974221;28;19922;-74
2022/01/10 04:04:08;;;;;;;;;;;1.20;99.90;;;;;;4974905;28;19922;-73
2022/01/10 04:06:34;;;;;;;;;;;0.00;99.90;;;;;;4960572;28;19922;-74
2022/01/10 04:09:00;;;;;;;;;;;0.00;99.90;;;;;;4960827;28;19922;-74
2022/01/10 04:11:27;;;;;;;;;;;0.00;99.90;;;;;;4976923;28;19926;-74
2022/01/10 04:13:55;;;;;;;;;;;-0.10;99.90;;;;;;4968373;28;20017;-74
2022/01/10 04:16:21;;;;;;;;;;;-0.20;99.90;;;;;;4957917;29;19926;-74
2022/01/10 04:18:47;;;;;;;;;;;0.00;99.90;;;;;;4957693;28;19930;-75
2022/01/10 04:21:15;;;;;;;;;;;-0.10;99.90;;;;;;4957631;29;19932;-74
2022/01/10 04:23:41;;;;;;;;;;;0.00;99.90;;;;;;4957867;29;20008;-75
2022/01/10 04:26:07;;;;;;;;;;;0.00;99.90;;;;;;4957422;29;19981;-75
2022/01/10 04:28:32;;;;;;;;;;;0.00;99.90;;;;;;4941889;29;20340;-74
2022/01/10 04:30:58;;;;;;;;;;;-0.70;99.90;;;;;;4924736;29;19922;-74
2022/01/10 04:33:28;;;;;;;;;;;0.00;99.90;;;;;;4940359;29;19929;-74
2022/01/10 04:35:54;;;;;;;;;;;0.00;99.90;;;;;;4941027;29;19922;-75
2022/01/10 04:38:20;;;;;;;;;;;0.30;99.90;;;;;;4973553;28;19929;-75
2022/01/10 04:40:46;;;;;;;;;;;0.10;99.90;;;;;;4977417;28;20388;-75
2022/01/10 04:43:12;;;;;;;;;;;0.10;99.90;;;;;;4961112;28;20032;-75
2022/01/10 04:45:37;;;;;;;;;;;-1.60;99.90;;;;;;4940325;29;19926;-75
2022/01/10 04:48:06;;;;;;;;;;;0.40;99.90;;;;;;4958736;28;19930;-75
2022/01/10 04:53:15;;;;;;;;;;;0.00;99.90;;;;;;4956957;28;20294;-74
2022/01/10 04:55:41;;;;;;;;;;;0.00;99.90;;;;;;4940382;29;19929;-75
2022/01/10 04:58:06;;;;;;;;;;;0.00;99.90;;;;;;4939622;29;20013;-75
2022/01/10 05:00:35;;;;;;;;;;;0.00;99.90;;;;;;4956037;29;19926;-75
2022/01/10 05:03:00;;;;;;;;;;;1.80;99.90;;;;;;4958306;28;19929;-75
2022/01/10 05:05:29;;;;;;;;;;;-0.10;99.90;;;;;;4956327;29;19977;-75
2022/01/10 05:07:58;;;;;;;;;;;0.00;99.90;;;;;;4939927;29;20013;-75
2022/01/10 05:10:23;;;;;;;;;;;0.00;99.90;;;;;;4939448;28;20351;-75
2022/01/10 05:12:52;;;;;;;;;;;-0.10;99.90;;;;;;4958146;28;20290;-75
2022/01/10 05:15:24;;;;;;;;;;;0.00;99.90;;;;;;4974381;28;19984;-75
2022/01/10 05:17:50;;;;;;;;;;;0.00;99.90;;;;;;4942742;29;19973;-75
2022/01/10 05:20:27;;;;;;;;;;;0.20;99.90;;;;;;4939045;29;20730;-75
2022/01/10 05:22:57;;;;;;;;;;;0.10;99.90;;;;;;4937832;29;19922;-75
2022/01/10 05:25:36;;;;;;;;;;;0.10;99.90;;;;;;4939673;29;19926;-74
2022/01/10 05:28:09;;;;;;;;;;;0.00;99.90;;;;;;4939005;29;19922;-75
2022/01/10 05:30:38;;;;;;;;;;;0.10;99.90;;;;;;4940153;29;20404;-76
2022/01/10 05:33:04;;;;;;;;;;;0.10;99.90;;;;;;4937083;29;20378;-76
2022/01/10 05:35:30;;;;;;;;;;;0.10;99.90;;;;;;4927262;29;19924;-76
2022/01/10 05:38:00;;;;;;;;;;;0.20;99.90;;;;;;4944912;29;19923;-75
2022/01/10 05:40:25;;;;;;;;;;;0.10;99.90;;;;;;4942576;29;20013;-75
2022/01/10 05:42:51;;;;;;;;;;;0.10;99.90;;;;;;4932334;28;20021;-75
2022/01/10 05:45:17;;;;;;;;;;;0.10;99.90;;;;;;4926786;28;19934;-75
2022/01/10 05:47:45;;;;;;;;;;;0.10;99.90;;;;;;4928440;29;19927;-76
2022/01/10 05:50:11;;;;;;;;;;;0.10;99.90;;;;;;4944826;29;20330;-75
2022/01/10 05:52:37;;;;;;;;;;;0.10;99.90;;;;;;4931484;29;19922;-75
2022/01/10 05:55:04;;;;;;;;;;;0.10;99.90;;;;;;4933930;29;19955;-75
2022/01/10 05:57:30;;;;;;;;;;;0.10;99.90;;;;;;4938386;29;19923;-75
2022/01/10 05:59:55;;;;;;;;;;;0.20;99.90;;;;;;4939194;29;19945;-75
2022/01/10 06:02:22;;;;;;;;;;;0.10;99.90;;;;;;4939075;29;20267;-75
2022/01/10 06:04:50;;;;;;;;;;;0.10;99.90;;;;;;4938295;29;19922;-76
2022/01/10 06:07:19;;;;;;;;;;;0.10;99.90;;;;;;4966136;28;20525;-76
2022/01/10 06:09:45;;;;;;;;;;;0.10;99.90;;;;;;4974263;28;20035;-74
2022/01/10 06:12:10;;;;;;;;;;;0.70;99.90;;;;;;4957428;28;19938;-74
2022/01/10 06:14:36;;;;;;;;;;;0.10;99.90;;;;;;4938774;28;19923;-74
2022/01/10 06:17:01;;;;;;;;;;;0.20;99.90;;;;;;4938493;29;19978;-76
2022/01/10 06:19:27;;;;;;;;;;;0.20;99.90;;;;;;4938771;29;19970;-75
2022/01/10 06:21:53;;;;;;;;;;;0.20;99.90;;;;;;4956108;29;20381;-75
2022/01/10 06:24:24;;;;;;;;;;;0.20;99.90;;;;;;4955930;28;19922;-75
2022/01/10 06:26:50;;;;;;;;;;;1.60;99.90;;;;;;4955197;28;19929;-75
2022/01/10 06:29:15;;;;;;;;;;;1.30;99.90;;;;;;4938695;29;19923;-75
2022/01/10 06:31:41;;;;;;;;;;;0.20;99.90;;;;;;4938362;29;19922;-75
2022/01/10 06:34:06;;;;;;;;;;;0.20;99.90;;;;;;4956465;28;19929;-75
2022/01/10 06:36:32;;;;;;;;;;;0.20;99.90;;;;;;4922693;29;19922;-75
2022/01/10 06:38:57;;;;;;;;;;;0.10;99.90;;;;;;4954984;29;19985;-75
2022/01/10 06:41:32;;;;;;;;;;;0.00;99.90;;;;;;4955583;29;20017;-75
2022/01/10 06:43:58;;;;;;;;;;;-0.10;99.90;;;;;;4969574;28;19922;-75
2022/01/10 06:46:25;;;;;;;;;;;-0.20;99.90;;;;;;4974020;28;19922;-75
2022/01/10 06:48:50;;;;;;;;;;;-0.10;99.90;;;;;;4974422;28;20399;-75
2022/01/10 06:51:16;;;;;;;;;;;-0.10;99.90;;;;;;4956045;28;19926;-75
2022/01/10 06:53:42;;;;;;;;;;;-0.30;99.90;;;;;;4955038;29;20009;-77
2022/01/10 06:56:14;;;;;;;;;;;-0.40;99.90;;;;;;4954949;29;19922;-76
2022/01/10 06:58:49;;;;;;;;;;;-2.20;99.90;;;;;;4946597;29;19926;-75
2022/01/10 07:01:17;;;;;;;;;;;-0.40;99.90;;;;;;4930419;29;20005;-74
2022/01/10 07:03:44;;;;;;;;;;;-0.40;99.90;;;;;;4923874;29;20494;-77
2022/01/10 07:06:09;;;;;;;;;;;-0.50;99.90;;;;;;4935296;29;19927;-76
2022/01/10 07:08:35;;;;;;;;;;;-0.50;99.90;;;;;;4940094;29;20302;-76
2022/01/10 07:11:00;;;;;;;;;;;-0.60;99.90;;;;;;4952983;28;20388;-75
2022/01/10 07:13:26;;;;;;;;;;;-0.50;99.90;;;;;;4937137;29;19929;-77
2022/01/10 07:15:54;;;;;;;;;;;-0.60;99.90;;;;;;4938010;29;19934;-76
2022/01/10 07:18:20;;;;;;;;;;;1.90;99.90;;;;;;4938514;29;19945;-77
2022/01/10 07:20:45;;;;;;;;;;;-0.70;99.90;;;;;;4938015;29;19922;-77
2022/01/10 07:23:11;;;;;;;;;;;-0.60;99.90;;;;;;4954420;29;20365;-76
2022/01/10 07:25:37;;;;;;;;;;;-0.60;99.90;;;;;;4948470;28;19922;-77
2022/01/10 07:28:03;;;;;;;;;;;0.10;99.90;;;;;;4972579;28;19926;-76
2022/01/10 07:30:31;;;;;;;;;;;-0.70;99.90;;;;;;4953396;28;20370;-76
2022/01/10 07:32:57;;;;;;;;;;;-0.70;99.90;;;;;;4938260;28;19948;-76
2022/01/10 07:35:26;;;;;;;;;;;-0.80;99.90;;;;;;4933521;29;19926;-76
2022/01/10 07:37:51;;;;;;;;;;;-0.80;99.90;;;;;;4935616;29;19925;-76
2022/01/10 07:40:17;;;;;;;;;;;-1.00;99.90;;;;;;4934838;29;20060;-77
2022/01/10 07:42:42;;;;;;;;;;;-0.90;99.90;;;;;;4934938;29;19979;-77
2022/01/10 07:45:08;;;;;;;;;;;-0.90;99.90;;;;;;4926617;29;20020;-77
2022/01/10 07:47:34;;;;;;;;;;;-0.90;99.90;;;;;;4937377;29;19927;-77
2022/01/10 07:49:59;;;;;;;;;;;-0.90;99.90;;;;;;4937220;29;19988;-77
2022/01/10 07:52:29;;;;;;;;;;;-0.80;99.90;;;;;;4937725;29;19985;-77
2022/01/10 07:54:55;;;;;;;;;;;0.50;99.90;;;;;;4954699;29;20338;-77
2022/01/10 07:57:23;;;;;;;;;;;1.10;99.90;;;;;;4953324;29;19919;-74
2022/01/10 07:59:49;;;;;;;;;;;-0.60;99.90;;;;;;4938683;29;19929;-78
2022/01/10 08:02:15;;;;;;;;;;;-0.60;99.90;;;;;;4938352;28;19926;-78
2022/01/10 08:04:41;;;;;;;;;;;-0.50;99.90;;;;;;4946579;28;20303;-79
2022/01/10 08:07:06;;;;;;;;;;;-0.50;99.90;;;;;;4956103;28;19922;-78
2022/01/10 08:09:32;;;;;;;;;;;-0.50;99.90;;;;;;4956280;28;19933;-85
2022/01/10 08:12:04;;;;;;;;;;;-0.40;99.90;;;;;;4956942;28;20351;-85
2022/01/10 08:14:29;;;;;;;;;;;-0.50;99.90;;;;;;4967325;28;19961;-85
2022/01/10 08:16:56;;;;;;;;;;;-0.40;99.90;;;;;;4951136;28;19922;-82
2022/01/10 08:19:21;;;;;;;;;;;-0.40;99.90;;;;;;4936573;29;19929;-80
2022/01/10 08:21:47;;;;;;;;;;;-0.30;99.90;;;;;;4937200;29;19926;-79
2022/01/10 08:24:18;;;;;;;;;;;-0.30;99.90;;;;;;4921161;29;19926;-79
2022/01/10 08:26:44;;;;;;;;;;;-0.30;99.90;;;;;;4938974;29;20244;-79
2022/01/10 08:29:10;;;;;;;;;;;1.40;99.90;;;;;;4917342;29;19952;-81
2022/01/10 08:31:35;;;;;;;;;;;-0.30;99.90;;;;;;4953601;29;19930;-87
2022/01/10 08:34:03;;;;;;;;;;;-0.30;99.90;;;;;;4945824;29;19929;-83
2022/01/10 08:36:29;;;;;;;;;;;-0.40;99.90;;;;;;4918109;29;19929;-79
2022/01/10 08:38:55;;;;;;;;;;;-0.30;99.90;;;;;;4935796;28;19923;-76
2022/01/10 08:41:20;;;;;;;;;;;-0.50;99.90;;;;;;4951552;28;20333;-77
2022/01/10 08:43:46;;;;;;;;;;;-0.20;99.90;;;;;;4935610;29;19966;-77
2022/01/10 08:46:11;;;;;;;;;;;-0.20;99.90;;;;;;4934148;29;19923;-79
2022/01/10 08:48:38;;;;;;;;;;;-0.10;99.90;;;;;;4936786;29;19933;-83
2022/01/10 08:51:03;;;;;;;;;;;0.00;99.90;;;;;;4955610;28;20013;-76
2022/01/10 08:53:29;;;;;;;;;;;0.00;99.90;;;;;;4939362;29;19966;-78
2022/01/10 08:55:54;;;;;;;;;;;0.10;99.90;;;;;;4941413;29;19938;-79
2022/01/10 08:58:21;;;;;;;;;;;0.20;99.90;;;;;;4939830;29;19985;-76
2022/01/10 09:00:49;;;;;;;;;;;0.10;99.90;;;;;;4939930;29;20354;-81
2022/01/10 09:03:15;;;;;;;;;;;0.10;99.90;;;;;;4940288;29;19923;-76
2022/01/10 09:05:41;;;;;;;;;;;0.20;99.90;;;;;;4941450;29;20366;-79
2022/01/10 09:08:07;;;;;;;;;;;0.40;99.90;;;;;;4939552;29;19930;-72
2022/01/10 09:10:32;;;;;;;;;;;0.50;99.90;;;;;;4940227;29;19926;-81
2022/01/10 09:12:58;;;;;;;;;;;0.60;99.90;;;;;;4939701;29;19936;-89
2022/01/10 09:15:23;;;;;;;;;;;0.80;99.90;;;;;;4939949;29;20262;-79
2022/01/10 09:17:49;;;;;;;;;;;0.90;99.90;;;;;;4957312;29;20025;-78
2022/01/10 09:20:15;;;;;;;;;;;1.00;99.90;;;;;;4948347;28;19973;-79
2022/01/10 09:22:40;;;;;;;;;;;1.70;99.90;;;;;;4957182;28;19965;-81
2022/01/10 09:25:06;;;;;;;;;;;1.00;99.90;;;;;;4958386;28;19939;-80
2022/01/10 09:27:32;;;;;;;;;;;1.00;99.90;;;;;;4958423;28;19932;-77
2022/01/10 09:30:00;;;;;;;;;;;1.20;99.90;;;;;;4958783;28;19922;-75
2022/01/10 09:32:25;;;;;;;;;;;1.30;99.90;;;;;;4959167;28;19973;-77
2022/01/10 09:34:51;;;;;;;;;;;1.40;99.90;;;;;;4938846;29;19929;-78
2022/01/10 09:37:16;;;;;;;;;;;1.40;99.90;;;;;;4956586;28;19950;-78
2022/01/10 09:39:42;;;;;;;;;;;1.50;99.90;;;;;;4939082;29;19934;-80
2022/01/10 09:42:09;;;;;;;;;;;1.70;99.90;;;;;;4919471;29;19930;-78
2022/01/10 09:44:35;;;;;;;;;;;1.80;99.90;;;;;;4951078;28;20298;-77
2022/01/10 09:47:01;;;;;;;;;;;1.80;99.90;;;;;;4938641;29;19922;-77
2022/01/10 09:49:26;;;;;;;;;;;1.90;99.90;;;;;;4971013;28;19929;-86
2022/01/10 09:51:52;;;;;;;;;;;2.00;99.90;;;;;;4944180;28;20329;-76
2022/01/10 09:54:17;;;;;;;;;;;2.20;99.90;;;;;;4949461;29;19922;-78
2022/01/10 09:56:47;;;;;;;;;;;2.30;99.90;;;;;;4940471;28;19941;-78
2022/01/10 09:59:16;;;;;;;;;;;2.50;99.90;;;;;;4945089;28;20608;-81
2022/01/10 10:01:43;;;;;;;;;;;2.80;99.90;;;;;;4947957;28;19922;-77
2022/01/10 10:04:14;;;;;;;;;;;2.90;99.90;;;;;;4949569;28;19922;-76
2022/01/10 10:06:44;;;;;;;;;;;3.30;99.90;;;;;;4938790;28;19934;-80
2022/01/10 10:09:10;;;;;;;;;;;3.60;99.90;;;;;;4943096;29;19937;-76
2022/01/10 10:11:48;;;;;;;;;;;4.20;99.90;;;;;;4967263;28;20337;-75
2022/01/10 10:14:17;;;;;;;;;;;4.70;99.90;;;;;;4967251;28;20277;-77
2022/01/10 10:16:49;;;;;;;;;;;5.10;99.90;;;;;;4946214;28;19930;-81
2022/01/10 10:19:16;;;;;;;;;;;5.70;99.90;;;;;;4946228;28;19924;-78
2022/01/10 10:21:46;;;;;;;;;;;8.10;99.90;;;;;;4950067;28;19922;-78
2022/01/10 10:24:13;;;;;;;;;;;7.50;99.90;;;;;;4932685;28;19922;-77
2022/01/10 10:26:39;;;;;;;;;;;8.60;99.90;;;;;;4955580;28;20378;-79
2022/01/10 10:29:05;;;;;;;;;;;9.40;99.90;;;;;;4963584;28;19929;-78
2022/01/10 10:31:32;;;;;;;;;;;11.80;99.90;;;;;;4948277;28;19918;-78
2022/01/10 10:34:00;;;;;;;;;;;10.70;99.90;;;;;;4964741;28;20294;-75
2022/01/10 10:36:31;;;;;;;;;;;11.60;99.90;;;;;;4968199;28;19957;-78
2022/01/10 10:38:58;;;;;;;;;;;12.10;99.90;;;;;;4957558;28;19950;-77
2022/01/10 10:41:29;;;;;;;;;;;12.60;99.90;;;;;;4939033;28;19976;-74
2022/01/10 10:44:05;;;;;;;;;;;12.30;99.90;;;;;;4942648;28;20043;-75
2022/01/10 10:46:36;;;;;;;;;;;12.40;99.90;;;;;;4941448;28;19921;-79
2022/01/10 10:49:08;;;;;;;;;;;13.00;99.90;;;;;;4956191;28;20326;-76
2022/01/10 10:52:00;;;;;;;;;;;13.30;99.90;;;;;;4962287;28;19930;-79
2022/01/10 10:54:31;;;;;;;;;;;13.80;99.90;;;;;;4935564;29;20393;-77
2022/01/10 10:57:14;;;;;;;;;;;13.40;99.90;;;;;;4908338;28;19926;-74
2022/01/10 10:59:43;;;;;;;;;;;13.10;99.90;;;;;;4959150;28;19923;-73
2022/01/10 11:02:29;;;;;;;;;;;13.50;99.90;;;;;;4953600;28;19926;-75
2022/01/10 11:05:03;;;;;;;;;;;13.50;99.90;;;;;;4957027;28;19944;-78
2022/01/10 11:07:45;;;;;;;;;;;15.50;99.90;;;;;;4956930;28;19937;-76
2022/01/10 11:10:13;;;;;;;;;;;13.30;99.90;;;;;;4939106;28;19930;-76
2022/01/10 11:12:41;;;;;;;;;;;14.50;98.90;;;;;;4964896;28;19944;-74
2022/01/10 11:15:07;;;;;;;;;;;15.80;99.70;;;;;;4934774;28;19957;-75
2022/01/10 11:17:33;;;;;;;;;;;14.60;99.60;;;;;;4954081;28;20009;-74
2022/01/10 11:20:16;;;;;;;;;;;15.40;99.90;;;;;;4959451;28;20461;-72
2022/01/10 11:22:43;;;;;;;;;;;14.90;98.40;;;;;;4957159;28;20390;-74
2022/01/10 11:25:21;;;;;;;;;;;15.20;97.10;;;;;;4966445;28;20017;-75
2022/01/10 11:27:47;;;;;;;;;;;15.60;99.20;;;;;;4943732;28;19922;-72
2022/01/10 11:30:22;;;;;;;;;;;15.60;97.20;;;;;;4927235;29;20379;-71
2022/01/10 11:32:57;;;;;;;;;;;15.50;99.50;;;;;;4952121;29;19993;-73
2022/01/10 11:35:28;;;;;;;;;;;15.80;98.00;;;;;;4956061;28;19936;-72
2022/01/10 11:37:54;;;;;;;;;;;15.90;98.30;;;;;;4926700;29;19965;-74
2022/01/10 11:40:20;;;;;;;;;;;16.10;96.80;;;;;;4904935;29;19977;-77
2022/01/10 11:42:55;;;;;;;;;;;15.90;98.80;;;;;;4954299;29;19926;-75
2022/01/10 11:45:20;;;;;;;;;;;15.70;97.00;;;;;;4954198;29;19922;-75
2022/01/10 11:48:01;;;;;;;;;;;17.40;99.10;;;;;;4948106;29;19930;-74
2022/01/10 11:50:27;;;;;;;;;;;16.60;97.20;;;;;;4955407;28;20026;-78
2022/01/10 11:53:20;;;;;;;;;;;16.60;97.90;;;;;;4954540;29;19933;-75
2022/01/10 11:55:53;;;;;;;;;;;16.60;95.70;;;;;;4939315;28;20013;-73
2022/01/10 11:58:23;;;;;;;;;;;16.90;97.40;;;;;;4944087;28;19922;-72
2022/01/10 12:00:51;;;;;;;;;;;16.90;98.30;;;;;;4968554;28;19974;-76
2022/01/10 12:03:20;;;;;;;;;;;18.30;95.50;;;;;;4957536;28;19926;-74
2022/01/10 12:06:00;;;;;;;;;;;16.30;95.90;;;;;;4976501;23;19929;-76
2022/01/10 12:08:53;;;;;;;;;;;16.30;96.30;;;;;;4940336;28;19923;-78
2022/01/10 12:11:53;;;;;;;;;;;16.50;98.00;;;;;;4953837;28;20372;-77
2022/01/10 12:14:26;;;;;;;;;;;16.80;97.80;;;;;;4924318;28;19922;-74
2022/01/10 12:16:52;;;;;;;;;;;18.10;95.90;;;;;;4944168;29;19970;-76
2022/01/10 12:19:19;;;;;;;;;;;16.60;95.40;;;;;;4947218;28;20011;-76
2022/01/10 12:21:48;;;;;;;;;;;16.80;95.60;;;;;;4946714;28;20339;-77
2022/01/10 12:24:20;;;;;;;;;;;14.90;95.60;;;;;;4950761;28;19989;-76
2022/01/10 12:26:52;;;;;;;;;;;16.40;96.50;;;;;;4968112;28;20282;-76
2022/01/10 12:29:17;;;;;;;;;;;16.10;95.30;;;;;;4958613;28;19977;-78
2022/01/10 12:31:47;;;;;;;;;;;15.90;97.60;;;;;;4943924;29;19969;-77
2022/01/10 12:34:19;;;;;;;;;;;15.90;97.60;;;;;;4940299;28;20370;-76
2022/01/10 12:36:51;;;;;;;;;;;17.10;98.80;;;;;;4958204;28;20706;-76
2022/01/10 12:39:28;;;;;;;;;;;15.80;98.10;;;;;;4957874;28;19929;-76
2022/01/10 12:41:56;;;;;;;;;;;15.60;98.90;;;;;;4956139;28;20012;-76
2022/01/10 12:44:21;;;;;;;;;;;14.60;97.60;;;;;;4958745;28;19929;-79
2022/01/10 12:46:50;;;;;;;;;;;16.00;98.70;;;;;;4962108;28;19922;-77
2022/01/10 12:49:16;;;;;;;;;;;16.30;98.50;;;;;;4966938;28;19926;-77
2022/01/10 12:52:10;;;;;;;;;;;15.50;97.60;;;;;;4967185;28;19926;-78
2022/01/10 12:54:54;;;;;;;;;;;15.40;98.60;;;;;;4940006;28;20004;-72
2022/01/10 12:57:29;;;;;;;;;;;15.10;98.90;;;;;;4967090;28;19926;-75
2022/01/10 12:59:59;;;;;;;;;;;16.40;99.90;;;;;;4952145;28;19927;-77
2022/01/10 13:02:37;;;;;;;;;;;15.00;99.90;;;;;;4973460;28;20064;-75
2022/01/10 13:05:04;;;;;;;;;;;14.30;99.90;;;;;;4952595;28;20009;-75
2022/01/10 13:07:35;;;;;;;;;;;15.50;99.60;;;;;;4943631;29;19945;-78
2022/01/10 13:10:06;;;;;;;;;;;15.50;99.70;;;;;;4937977;28;19922;-74
2022/01/10 13:12:35;;;;;;;;;;;16.10;99.40;;;;;;4936740;28;19932;-76
2022/01/10 13:15:32;;;;;;;;;;;16.10;99.50;;;;;;4946935;28;19922;-77
2022/01/10 13:17:59;;;;;;;;;;;15.20;99.30;;;;;;4940315;28;20017;-77
2022/01/10 13:20:37;;;;;;;;;;;13.40;99.90;;;;;;4942764;29;19974;-78
2022/01/10 13:23:10;;;;;;;;;;;13.90;99.90;;;;;;4941882;29;19922;-78
2022/01/10 13:25:37;;;;;;;;;;;14.10;99.90;;;;;;4959310;29;20275;-77
2022/01/10 13:28:08;;;;;;;;;;;14.40;99.90;;;;;;4928300;29;20013;-80
2022/01/10 13:30:35;;;;;;;;;;;13.60;99.90;;;;;;4934593;28;20004;-74
2022/01/10 13:33:20;;;;;;;;;;;13.20;99.90;;;;;;4974954;28;20050;-75
2022/01/10 13:35:54;;;;;;;;;;;12.70;99.90;;;;;;4975662;28;19976;-77
2022/01/10 13:38:24;;;;;;;;;;;12.70;99.90;;;;;;4957830;28;19945;-76
2022/01/10 13:40:50;;;;;;;;;;;13.40;99.90;;;;;;4958062;28;19922;-74
2022/01/10 13:43:20;;;;;;;;;;;11.00;99.90;;;;;;4975920;28;19941;-78
2022/01/10 13:45:52;;;;;;;;;;;10.20;99.90;;;;;;4958384;28;19984;-74
2022/01/10 13:48:21;;;;;;;;;;;9.70;99.90;;;;;;4974857;28;19949;-74
2022/01/10 13:50:54;;;;;;;;;;;8.90;99.90;;;;;;4942685;28;19918;-74
2022/01/10 13:53:27;;;;;;;;;;;8.20;99.90;;;;;;4945236;28;19953;-75
2022/01/10 13:56:12;;;;;;;;;;;7.70;99.90;;;;;;4949556;29;19918;-74
2022/01/10 13:58:41;;;;;;;;;;;7.50;99.90;;;;;;4938729;29;19986;-74
2022/01/10 14:01:06;;;;;;;;;;;7.60;99.90;;;;;;4959164;28;20285;-74
2022/01/10 14:03:33;;;;;;;;;;;7.10;99.90;;;;;;4957911;28;19922;-75
2022/01/10 14:06:11;;;;;;;;;;;7.00;99.90;;;;;;4946389;28;19926;-73
2022/01/10 14:15:12;;;;;;;;;;;6.60;99.90;;;;;;4907438;29;19922;-74
2022/01/10 14:17:38;;;;;;;;;;;7.00;99.90;;;;;;4941474;29;21435;-76
2022/01/10 14:20:07;;;;;;;;;;;6.90;99.90;;;;;;4937862;29;19930;-74
2022/01/10 14:22:32;;;;;;;;;;;5.90;99.90;;;;;;4930209;28;20367;-77
2022/01/10 14:24:58;;;;;;;;;;;6.90;99.90;;;;;;4945572;28;19933;-72
2022/01/10 14:27:24;;;;;;;;;;;6.90;99.90;;;;;;4937994;29;19961;-74
2022/01/10 14:29:55;;;;;;;;;;;6.90;99.90;;;;;;4965640;28;19922;-71
2022/01/10 14:32:20;;;;;;;;;;;7.00;99.90;;;;;;4940615;28;20017;-71
2022/01/10 14:34:46;;;;;;;;;;;6.80;99.90;;;;;;4965217;28;19922;-72
2022/01/10 14:37:12;;;;;;;;;;;6.70;99.90;;;;;;4961791;28;19969;-72
2022/01/10 14:39:37;;;;;;;;;;;6.70;99.90;;;;;;4947907;28;20357;-72
2022/01/10 14:42:03;;;;;;;;;;;6.70;99.90;;;;;;4926959;29;19922;-72
2022/01/10 14:44:28;;;;;;;;;;;6.70;99.90;;;;;;4966887;28;19926;-76
2022/01/10 14:46:54;;;;;;;;;;;6.70;99.90;;;;;;4932350;29;21397;-75
2022/01/10 14:49:20;;;;;;;;;;;6.70;99.90;;;;;;4928216;29;20441;-74
2022/01/10 14:51:45;;;;;;;;;;;6.60;99.90;;;;;;4932094;29;19922;-75